sensor_id;sensor_type;location;lat;lon;timestamp;P1;durP1;ratioP1;P2;durP2;ratioP2
2201;SDS011;1107;48.654;9.250;2023-08-20T00:01:06;15.30;;;13.90;;
2201;SDS011;1107;48.654;9.250;2023-08-20T00:03:38;15.00;;;12.80;;
2201;SDS011;1107;48.654;9.250;2023-08-20T00:06:09;14.97;;;13.97;;
2201;SDS011;1107;48.654;9.250;2023-08-20T00:08:36;15.90;;;14.07;;
2201;SDS011;1107;48.654;9.250;2023-08-20T00:11:04;14.83;;;13.60;;
2201;SDS011;1107;48.654;9.250;2023-08-20T00:13:31;14.40;;;13.47;;
2201;SDS011;1107;48.654;9.250;2023-08-20T00:15:59;15.43;;;14.23;;
2201;SDS011;1107;48.654;9.250;2023-08-20T00:18:27;13.07;;;12.37;;
2201;SDS011;1107;48.654;9.250;2023-08-20T00:20:55;13.37;;;12.53;;
2201;SDS011;1107;48.654;9.250;2023-08-20T00:23:23;15.17;;;13.73;;
2201;SDS011;1107;48.654;9.250;2023-08-20T00:25:51;14.60;;;13.30;;
2201;SDS011;1107;48.654;9.250;2023-08-20T00:28:18;13.50;;;12.80;;
2201;SDS011;1107;48.654;9.250;2023-08-20T00:30:46;14.37;;;13.27;;
2201;SDS011;1107;48.654;9.250;2023-08-20T00:33:14;15.07;;;14.10;;
2201;SDS011;1107;48.654;9.250;2023-08-20T00:35:41;13.73;;;12.87;;
2201;SDS011;1107;48.654;9.250;2023-08-20T00:38:10;15.23;;;12.97;;
2201;SDS011;1107;48.654;9.250;2023-08-20T00:40:37;14.97;;;13.47;;
2201;SDS011;1107;48.654;9.250;2023-08-20T00:43:04;13.97;;;13.10;;
2201;SDS011;1107;48.654;9.250;2023-08-20T00:45:31;14.83;;;13.33;;
2201;SDS011;1107;48.654;9.250;2023-08-20T00:47:58;15.17;;;14.27;;
2201;SDS011;1107;48.654;9.250;2023-08-20T00:50:26;15.10;;;13.63;;
2201;SDS011;1107;48.654;9.250;2023-08-20T00:52:53;14.97;;;13.23;;
2201;SDS011;1107;48.654;9.250;2023-08-20T00:55:22;16.53;;;13.87;;
2201;SDS011;1107;48.654;9.250;2023-08-20T00:57:49;13.73;;;12.93;;
2201;SDS011;1107;48.654;9.250;2023-08-20T01:00:16;14.73;;;13.60;;
2201;SDS011;1107;48.654;9.250;2023-08-20T01:02:44;15.30;;;13.83;;
2201;SDS011;1107;48.654;9.250;2023-08-20T01:05:11;14.50;;;13.27;;
2201;SDS011;1107;48.654;9.250;2023-08-20T01:07:41;14.13;;;12.90;;
2201;SDS011;1107;48.654;9.250;2023-08-20T01:10:18;13.43;;;12.77;;
2201;SDS011;1107;48.654;9.250;2023-08-20T01:12:52;14.40;;;13.50;;
2201;SDS011;1107;48.654;9.250;2023-08-20T01:15:20;14.60;;;13.50;;
2201;SDS011;1107;48.654;9.250;2023-08-20T01:17:48;15.33;;;14.20;;
2201;SDS011;1107;48.654;9.250;2023-08-20T01:20:15;15.17;;;13.97;;
2201;SDS011;1107;48.654;9.250;2023-08-20T01:22:49;14.87;;;13.40;;
2201;SDS011;1107;48.654;9.250;2023-08-20T01:25:30;15.37;;;14.37;;
2201;SDS011;1107;48.654;9.250;2023-08-20T01:28:19;15.57;;;14.37;;
2201;SDS011;1107;48.654;9.250;2023-08-20T01:30:48;15.83;;;14.27;;
2201;SDS011;1107;48.654;9.250;2023-08-20T01:33:16;14.67;;;13.70;;
2201;SDS011;1107;48.654;9.250;2023-08-20T01:35:44;14.80;;;13.70;;
2201;SDS011;1107;48.654;9.250;2023-08-20T01:38:11;15.77;;;14.23;;
2201;SDS011;1107;48.654;9.250;2023-08-20T01:40:38;14.57;;;13.57;;
2201;SDS011;1107;48.654;9.250;2023-08-20T01:43:06;14.80;;;13.70;;
2201;SDS011;1107;48.654;9.250;2023-08-20T01:45:35;16.27;;;14.60;;
2201;SDS011;1107;48.654;9.250;2023-08-20T01:48:02;14.60;;;13.80;;
2201;SDS011;1107;48.654;9.250;2023-08-20T01:50:30;14.80;;;13.90;;
2201;SDS011;1107;48.654;9.250;2023-08-20T01:52:57;14.40;;;13.47;;
2201;SDS011;1107;48.654;9.250;2023-08-20T01:55:24;16.07;;;14.33;;
2201;SDS011;1107;48.654;9.250;2023-08-20T01:57:51;15.33;;;14.10;;
2201;SDS011;1107;48.654;9.250;2023-08-20T02:00:18;15.80;;;14.60;;
2201;SDS011;1107;48.654;9.250;2023-08-20T02:02:46;15.83;;;14.20;;
2201;SDS011;1107;48.654;9.250;2023-08-20T02:05:13;15.63;;;14.57;;
2201;SDS011;1107;48.654;9.250;2023-08-20T02:07:40;16.57;;;15.07;;
2201;SDS011;1107;48.654;9.250;2023-08-20T02:10:08;15.43;;;13.80;;
2201;SDS011;1107;48.654;9.250;2023-08-20T02:12:35;15.73;;;14.43;;
2201;SDS011;1107;48.654;9.250;2023-08-20T02:15:02;15.70;;;14.33;;
2201;SDS011;1107;48.654;9.250;2023-08-20T02:17:29;15.20;;;14.10;;
2201;SDS011;1107;48.654;9.250;2023-08-20T02:19:58;17.03;;;14.80;;
2201;SDS011;1107;48.654;9.250;2023-08-20T02:22:25;16.30;;;14.90;;
2201;SDS011;1107;48.654;9.250;2023-08-20T02:24:54;16.63;;;15.00;;
2201;SDS011;1107;48.654;9.250;2023-08-20T02:27:21;16.07;;;14.97;;
2201;SDS011;1107;48.654;9.250;2023-08-20T02:29:48;16.90;;;15.70;;
2201;SDS011;1107;48.654;9.250;2023-08-20T02:32:16;16.73;;;15.30;;
2201;SDS011;1107;48.654;9.250;2023-08-20T02:34:44;21.13;;;14.10;;
2201;SDS011;1107;48.654;9.250;2023-08-20T02:37:16;16.33;;;15.33;;
2201;SDS011;1107;48.654;9.250;2023-08-20T02:39:43;15.63;;;14.30;;
2201;SDS011;1107;48.654;9.250;2023-08-20T02:42:10;15.37;;;14.27;;
2201;SDS011;1107;48.654;9.250;2023-08-20T02:44:37;15.60;;;14.37;;
2201;SDS011;1107;48.654;9.250;2023-08-20T02:47:04;16.90;;;15.40;;
2201;SDS011;1107;48.654;9.250;2023-08-20T02:49:31;17.73;;;14.80;;
2201;SDS011;1107;48.654;9.250;2023-08-20T02:51:58;14.70;;;13.90;;
2201;SDS011;1107;48.654;9.250;2023-08-20T02:54:26;15.30;;;13.93;;
2201;SDS011;1107;48.654;9.250;2023-08-20T02:56:54;15.87;;;14.77;;
2201;SDS011;1107;48.654;9.250;2023-08-20T02:59:21;16.33;;;14.70;;
2201;SDS011;1107;48.654;9.250;2023-08-20T03:01:48;14.87;;;13.77;;
2201;SDS011;1107;48.654;9.250;2023-08-20T03:04:15;15.10;;;13.87;;
2201;SDS011;1107;48.654;9.250;2023-08-20T03:06:42;15.57;;;14.40;;
2201;SDS011;1107;48.654;9.250;2023-08-20T03:09:10;17.10;;;15.00;;
2201;SDS011;1107;48.654;9.250;2023-08-20T03:11:38;15.97;;;14.97;;
2201;SDS011;1107;48.654;9.250;2023-08-20T03:14:05;17.03;;;15.23;;
2201;SDS011;1107;48.654;9.250;2023-08-20T03:16:32;16.83;;;15.53;;
2201;SDS011;1107;48.654;9.250;2023-08-20T03:18:59;16.90;;;15.53;;
2201;SDS011;1107;48.654;9.250;2023-08-20T03:21:27;15.30;;;14.30;;
2201;SDS011;1107;48.654;9.250;2023-08-20T03:23:54;17.17;;;15.97;;
2201;SDS011;1107;48.654;9.250;2023-08-20T03:26:21;17.60;;;16.20;;
2201;SDS011;1107;48.654;9.250;2023-08-20T03:28:50;17.93;;;16.40;;
2201;SDS011;1107;48.654;9.250;2023-08-20T03:31:17;17.27;;;15.80;;
2201;SDS011;1107;48.654;9.250;2023-08-20T03:33:44;17.17;;;15.67;;
2201;SDS011;1107;48.654;9.250;2023-08-20T03:36:10;17.43;;;15.93;;
2201;SDS011;1107;48.654;9.250;2023-08-20T03:38:37;17.00;;;15.67;;
2201;SDS011;1107;48.654;9.250;2023-08-20T03:41:04;17.37;;;15.90;;
2201;SDS011;1107;48.654;9.250;2023-08-20T03:43:32;16.67;;;15.27;;
2201;SDS011;1107;48.654;9.250;2023-08-20T03:46:00;17.53;;;16.20;;
2201;SDS011;1107;48.654;9.250;2023-08-20T03:48:27;17.57;;;15.93;;
2201;SDS011;1107;48.654;9.250;2023-08-20T03:50:55;16.87;;;15.57;;
2201;SDS011;1107;48.654;9.250;2023-08-20T03:53:22;17.57;;;16.07;;
2201;SDS011;1107;48.654;9.250;2023-08-20T03:55:50;18.23;;;16.83;;
2201;SDS011;1107;48.654;9.250;2023-08-20T03:58:17;16.43;;;15.23;;
2201;SDS011;1107;48.654;9.250;2023-08-20T04:00:44;19.67;;;17.70;;
2201;SDS011;1107;48.654;9.250;2023-08-20T04:03:12;17.27;;;16.07;;
2201;SDS011;1107;48.654;9.250;2023-08-20T04:05:44;19.10;;;17.30;;
2201;SDS011;1107;48.654;9.250;2023-08-20T04:08:11;19.03;;;17.10;;
2201;SDS011;1107;48.654;9.250;2023-08-20T04:10:42;19.17;;;17.53;;
2201;SDS011;1107;48.654;9.250;2023-08-20T04:13:09;20.50;;;18.67;;
2201;SDS011;1107;48.654;9.250;2023-08-20T04:15:36;19.73;;;17.80;;
2201;SDS011;1107;48.654;9.250;2023-08-20T04:18:04;23.67;;;18.03;;
2201;SDS011;1107;48.654;9.250;2023-08-20T04:20:33;20.50;;;18.30;;
2201;SDS011;1107;48.654;9.250;2023-08-20T04:23:00;19.47;;;17.63;;
2201;SDS011;1107;48.654;9.250;2023-08-20T04:25:27;19.83;;;18.30;;
2201;SDS011;1107;48.654;9.250;2023-08-20T04:27:54;20.90;;;18.37;;
2201;SDS011;1107;48.654;9.250;2023-08-20T04:30:21;20.80;;;19.10;;
2201;SDS011;1107;48.654;9.250;2023-08-20T04:32:48;20.53;;;18.53;;
2201;SDS011;1107;48.654;9.250;2023-08-20T04:35:15;20.93;;;16.93;;
2201;SDS011;1107;48.654;9.250;2023-08-20T04:37:44;20.53;;;18.67;;
2201;SDS011;1107;48.654;9.250;2023-08-20T04:40:11;20.00;;;18.00;;
2201;SDS011;1107;48.654;9.250;2023-08-20T04:42:38;18.97;;;17.27;;
2201;SDS011;1107;48.654;9.250;2023-08-20T04:45:05;19.73;;;17.90;;
2201;SDS011;1107;48.654;9.250;2023-08-20T04:47:33;25.13;;;17.80;;
2201;SDS011;1107;48.654;9.250;2023-08-20T04:50:00;19.93;;;17.97;;
2201;SDS011;1107;48.654;9.250;2023-08-20T04:52:27;18.77;;;17.10;;
2201;SDS011;1107;48.654;9.250;2023-08-20T04:54:56;23.53;;;18.40;;
2201;SDS011;1107;48.654;9.250;2023-08-20T04:57:23;18.60;;;16.93;;
2201;SDS011;1107;48.654;9.250;2023-08-20T04:59:50;19.23;;;17.33;;
2201;SDS011;1107;48.654;9.250;2023-08-20T05:02:17;18.60;;;17.17;;
2201;SDS011;1107;48.654;9.250;2023-08-20T05:04:44;18.07;;;16.67;;
2201;SDS011;1107;48.654;9.250;2023-08-20T05:07:11;20.93;;;17.53;;
2201;SDS011;1107;48.654;9.250;2023-08-20T05:09:38;17.33;;;16.23;;
2201;SDS011;1107;48.654;9.250;2023-08-20T05:12:07;17.23;;;16.00;;
2201;SDS011;1107;48.654;9.250;2023-08-20T05:14:35;18.10;;;16.70;;
2201;SDS011;1107;48.654;9.250;2023-08-20T05:17:02;17.60;;;16.40;;
2201;SDS011;1107;48.654;9.250;2023-08-20T05:19:29;17.73;;;15.97;;
2201;SDS011;1107;48.654;9.250;2023-08-20T05:21:56;19.83;;;17.50;;
2201;SDS011;1107;48.654;9.250;2023-08-20T05:24:24;17.80;;;16.30;;
2201;SDS011;1107;48.654;9.250;2023-08-20T05:27:03;16.60;;;15.50;;
2201;SDS011;1107;48.654;9.250;2023-08-20T05:29:32;17.80;;;15.93;;
2201;SDS011;1107;48.654;9.250;2023-08-20T05:31:59;16.37;;;15.00;;
2201;SDS011;1107;48.654;9.250;2023-08-20T05:34:26;16.90;;;15.70;;
2201;SDS011;1107;48.654;9.250;2023-08-20T05:36:53;19.30;;;16.43;;
2201;SDS011;1107;48.654;9.250;2023-08-20T05:39:20;16.70;;;15.60;;
2201;SDS011;1107;48.654;9.250;2023-08-20T05:41:48;19.00;;;16.50;;
2201;SDS011;1107;48.654;9.250;2023-08-20T05:44:15;16.50;;;15.27;;
2201;SDS011;1107;48.654;9.250;2023-08-20T05:46:44;15.90;;;14.97;;
2201;SDS011;1107;48.654;9.250;2023-08-20T05:49:11;16.43;;;15.20;;
2201;SDS011;1107;48.654;9.250;2023-08-20T05:51:38;17.30;;;15.70;;
2201;SDS011;1107;48.654;9.250;2023-08-20T05:54:06;16.10;;;15.10;;
2201;SDS011;1107;48.654;9.250;2023-08-20T05:56:33;16.67;;;15.53;;
2201;SDS011;1107;48.654;9.250;2023-08-20T05:59:00;15.40;;;14.30;;
2201;SDS011;1107;48.654;9.250;2023-08-20T06:01:27;15.57;;;14.50;;
2201;SDS011;1107;48.654;9.250;2023-08-20T06:03:55;14.67;;;13.50;;
2201;SDS011;1107;48.654;9.250;2023-08-20T06:06:22;14.80;;;13.80;;
2201;SDS011;1107;48.654;9.250;2023-08-20T06:08:49;14.87;;;13.80;;
2201;SDS011;1107;48.654;9.250;2023-08-20T06:11:16;23.97;;;14.17;;
2201;SDS011;1107;48.654;9.250;2023-08-20T06:13:43;13.77;;;13.00;;
2201;SDS011;1107;48.654;9.250;2023-08-20T06:16:10;13.20;;;12.20;;
2201;SDS011;1107;48.654;9.250;2023-08-20T06:18:37;15.10;;;13.60;;
2201;SDS011;1107;48.654;9.250;2023-08-20T06:21:06;12.93;;;12.27;;
2201;SDS011;1107;48.654;9.250;2023-08-20T06:23:33;14.00;;;13.10;;
2201;SDS011;1107;48.654;9.250;2023-08-20T06:26:00;14.50;;;13.23;;
2201;SDS011;1107;48.654;9.250;2023-08-20T06:28:27;15.90;;;14.17;;
2201;SDS011;1107;48.654;9.250;2023-08-20T06:30:54;13.83;;;13.10;;
2201;SDS011;1107;48.654;9.250;2023-08-20T06:33:20;15.57;;;13.90;;
2201;SDS011;1107;48.654;9.250;2023-08-20T06:35:47;13.13;;;12.53;;
2201;SDS011;1107;48.654;9.250;2023-08-20T06:38:16;14.20;;;13.50;;
2201;SDS011;1107;48.654;9.250;2023-08-20T06:40:43;13.40;;;12.60;;
2201;SDS011;1107;48.654;9.250;2023-08-20T06:43:10;14.47;;;13.33;;
2201;SDS011;1107;48.654;9.250;2023-08-20T06:45:37;14.67;;;13.23;;
2201;SDS011;1107;48.654;9.250;2023-08-20T06:48:04;14.93;;;13.67;;
2201;SDS011;1107;48.654;9.250;2023-08-20T06:50:32;13.37;;;12.57;;
2201;SDS011;1107;48.654;9.250;2023-08-20T06:52:59;13.53;;;12.63;;
2201;SDS011;1107;48.654;9.250;2023-08-20T06:55:27;13.67;;;12.53;;
2201;SDS011;1107;48.654;9.250;2023-08-20T06:57:54;15.00;;;13.17;;
2201;SDS011;1107;48.654;9.250;2023-08-20T07:00:21;15.47;;;14.30;;
2201;SDS011;1107;48.654;9.250;2023-08-20T07:02:48;14.27;;;13.00;;
2201;SDS011;1107;48.654;9.250;2023-08-20T07:05:15;14.13;;;13.00;;
2201;SDS011;1107;48.654;9.250;2023-08-20T07:07:43;13.37;;;12.50;;
2201;SDS011;1107;48.654;9.250;2023-08-20T07:10:11;14.70;;;13.43;;
2201;SDS011;1107;48.654;9.250;2023-08-20T07:12:40;14.67;;;13.63;;
2201;SDS011;1107;48.654;9.250;2023-08-20T07:15:07;13.30;;;12.70;;
2201;SDS011;1107;48.654;9.250;2023-08-20T07:17:35;14.30;;;12.20;;
2201;SDS011;1107;48.654;9.250;2023-08-20T07:20:04;14.57;;;13.73;;
2201;SDS011;1107;48.654;9.250;2023-08-20T07:22:32;15.10;;;13.50;;
2201;SDS011;1107;48.654;9.250;2023-08-20T07:24:59;13.43;;;12.57;;
2201;SDS011;1107;48.654;9.250;2023-08-20T07:27:26;14.77;;;13.10;;
2201;SDS011;1107;48.654;9.250;2023-08-20T07:29:54;13.50;;;12.80;;
2201;SDS011;1107;48.654;9.250;2023-08-20T07:32:21;14.13;;;13.07;;
2201;SDS011;1107;48.654;9.250;2023-08-20T07:34:48;13.80;;;13.03;;
2201;SDS011;1107;48.654;9.250;2023-08-20T07:37:15;13.67;;;12.20;;
2201;SDS011;1107;48.654;9.250;2023-08-20T07:39:42;13.37;;;12.20;;
2201;SDS011;1107;48.654;9.250;2023-08-20T07:42:09;14.27;;;13.17;;
2201;SDS011;1107;48.654;9.250;2023-08-20T07:44:37;13.17;;;12.67;;
2201;SDS011;1107;48.654;9.250;2023-08-20T07:47:05;13.80;;;13.20;;
2201;SDS011;1107;48.654;9.250;2023-08-20T07:49:33;14.33;;;13.53;;
2201;SDS011;1107;48.654;9.250;2023-08-20T07:51:59;12.80;;;12.00;;
2201;SDS011;1107;48.654;9.250;2023-08-20T07:54:27;14.07;;;13.07;;
2201;SDS011;1107;48.654;9.250;2023-08-20T07:56:54;14.73;;;13.63;;
2201;SDS011;1107;48.654;9.250;2023-08-20T07:59:21;13.13;;;12.33;;
2201;SDS011;1107;48.654;9.250;2023-08-20T08:01:48;12.90;;;12.20;;
2201;SDS011;1107;48.654;9.250;2023-08-20T08:04:17;14.73;;;13.67;;
2201;SDS011;1107;48.654;9.250;2023-08-20T08:06:44;13.10;;;12.20;;
2201;SDS011;1107;48.654;9.250;2023-08-20T08:09:14;12.23;;;11.60;;
2201;SDS011;1107;48.654;9.250;2023-08-20T08:11:45;13.77;;;12.87;;
2201;SDS011;1107;48.654;9.250;2023-08-20T08:14:12;12.47;;;11.97;;
2201;SDS011;1107;48.654;9.250;2023-08-20T08:16:39;15.10;;;14.07;;
2201;SDS011;1107;48.654;9.250;2023-08-20T08:19:06;14.80;;;14.03;;
2201;SDS011;1107;48.654;9.250;2023-08-20T08:21:34;14.50;;;13.63;;
2201;SDS011;1107;48.654;9.250;2023-08-20T08:24:01;12.43;;;12.03;;
2201;SDS011;1107;48.654;9.250;2023-08-20T08:26:30;14.47;;;13.50;;
2201;SDS011;1107;48.654;9.250;2023-08-20T08:28:57;15.07;;;12.50;;
2201;SDS011;1107;48.654;9.250;2023-08-20T08:31:24;12.63;;;11.80;;
2201;SDS011;1107;48.654;9.250;2023-08-20T08:33:52;12.17;;;11.47;;
2201;SDS011;1107;48.654;9.250;2023-08-20T08:36:19;13.30;;;12.57;;
2201;SDS011;1107;48.654;9.250;2023-08-20T08:38:47;13.67;;;12.63;;
2201;SDS011;1107;48.654;9.250;2023-08-20T08:41:14;12.27;;;11.23;;
2201;SDS011;1107;48.654;9.250;2023-08-20T08:43:41;12.73;;;11.90;;
2201;SDS011;1107;48.654;9.250;2023-08-20T08:46:11;12.53;;;11.93;;
2201;SDS011;1107;48.654;9.250;2023-08-20T08:48:40;13.53;;;12.53;;
2201;SDS011;1107;48.654;9.250;2023-08-20T08:51:08;12.43;;;11.70;;
2201;SDS011;1107;48.654;9.250;2023-08-20T08:53:35;13.50;;;12.63;;
2201;SDS011;1107;48.654;9.250;2023-08-20T08:56:03;12.17;;;11.47;;
2201;SDS011;1107;48.654;9.250;2023-08-20T08:58:32;13.77;;;12.63;;
2201;SDS011;1107;48.654;9.250;2023-08-20T09:00:59;12.43;;;11.93;;
2201;SDS011;1107;48.654;9.250;2023-08-20T09:03:26;11.83;;;11.13;;
2201;SDS011;1107;48.654;9.250;2023-08-20T09:05:54;11.37;;;10.70;;
2201;SDS011;1107;48.654;9.250;2023-08-20T09:08:23;12.07;;;11.37;;
2201;SDS011;1107;48.654;9.250;2023-08-20T09:10:53;12.50;;;11.40;;
2201;SDS011;1107;48.654;9.250;2023-08-20T09:13:23;13.37;;;12.40;;
2201;SDS011;1107;48.654;9.250;2023-08-20T09:15:51;13.37;;;11.37;;
2201;SDS011;1107;48.654;9.250;2023-08-20T09:18:20;13.63;;;12.33;;
2201;SDS011;1107;48.654;9.250;2023-08-20T09:20:48;13.23;;;12.43;;
2201;SDS011;1107;48.654;9.250;2023-08-20T09:23:15;12.17;;;11.43;;
2201;SDS011;1107;48.654;9.250;2023-08-20T09:25:42;11.93;;;11.33;;
2201;SDS011;1107;48.654;9.250;2023-08-20T09:28:10;12.60;;;11.90;;
2201;SDS011;1107;48.654;9.250;2023-08-20T09:30:39;13.63;;;12.70;;
2201;SDS011;1107;48.654;9.250;2023-08-20T09:33:07;13.20;;;12.30;;
2201;SDS011;1107;48.654;9.250;2023-08-20T09:35:37;12.00;;;11.30;;
2201;SDS011;1107;48.654;9.250;2023-08-20T09:38:04;12.90;;;11.70;;
2201;SDS011;1107;48.654;9.250;2023-08-20T09:40:31;11.87;;;10.80;;
2201;SDS011;1107;48.654;9.250;2023-08-20T09:42:58;11.60;;;11.10;;
2201;SDS011;1107;48.654;9.250;2023-08-20T09:45:27;11.00;;;10.33;;
2201;SDS011;1107;48.654;9.250;2023-08-20T09:47:58;10.57;;;10.17;;
2201;SDS011;1107;48.654;9.250;2023-08-20T09:50:28;11.00;;;10.30;;
2201;SDS011;1107;48.654;9.250;2023-08-20T09:53:03;10.83;;;10.20;;
2201;SDS011;1107;48.654;9.250;2023-08-20T09:55:33;10.20;;;9.53;;
2201;SDS011;1107;48.654;9.250;2023-08-20T09:58:05;10.70;;;10.20;;
2201;SDS011;1107;48.654;9.250;2023-08-20T10:00:33;12.10;;;9.80;;
2201;SDS011;1107;48.654;9.250;2023-08-20T10:03:02;10.10;;;9.50;;
2201;SDS011;1107;48.654;9.250;2023-08-20T10:05:29;9.63;;;9.23;;
2201;SDS011;1107;48.654;9.250;2023-08-20T10:07:58;10.50;;;10.00;;
2201;SDS011;1107;48.654;9.250;2023-08-20T10:10:27;11.10;;;9.90;;
2201;SDS011;1107;48.654;9.250;2023-08-20T10:12:55;10.80;;;9.93;;
2201;SDS011;1107;48.654;9.250;2023-08-20T10:15:23;10.40;;;9.70;;
2201;SDS011;1107;48.654;9.250;2023-08-20T10:17:51;10.90;;;10.37;;
2201;SDS011;1107;48.654;9.250;2023-08-20T10:20:20;11.50;;;10.80;;
2201;SDS011;1107;48.654;9.250;2023-08-20T10:22:48;10.73;;;10.23;;
2201;SDS011;1107;48.654;9.250;2023-08-20T10:25:21;10.87;;;10.20;;
2201;SDS011;1107;48.654;9.250;2023-08-20T10:27:49;11.60;;;10.70;;
2201;SDS011;1107;48.654;9.250;2023-08-20T10:30:17;10.57;;;10.17;;
2201;SDS011;1107;48.654;9.250;2023-08-20T10:32:47;10.37;;;9.97;;
2201;SDS011;1107;48.654;9.250;2023-08-20T10:35:15;11.17;;;10.60;;
2201;SDS011;1107;48.654;9.250;2023-08-20T10:38:05;11.03;;;10.43;;
2201;SDS011;1107;48.654;9.250;2023-08-20T10:40:49;11.53;;;10.87;;
2201;SDS011;1107;48.654;9.250;2023-08-20T10:43:26;10.93;;;10.23;;
2201;SDS011;1107;48.654;9.250;2023-08-20T10:46:04;9.97;;;9.47;;
2201;SDS011;1107;48.654;9.250;2023-08-20T10:48:35;10.30;;;9.90;;
2201;SDS011;1107;48.654;9.250;2023-08-20T10:51:06;11.63;;;11.03;;
2201;SDS011;1107;48.654;9.250;2023-08-20T10:53:39;10.40;;;9.70;;
2201;SDS011;1107;48.654;9.250;2023-08-20T10:56:08;10.60;;;9.97;;
2201;SDS011;1107;48.654;9.250;2023-08-20T10:58:40;10.97;;;10.27;;
2201;SDS011;1107;48.654;9.250;2023-08-20T11:01:20;10.37;;;9.80;;
2201;SDS011;1107;48.654;9.250;2023-08-20T11:03:49;11.27;;;10.67;;
2201;SDS011;1107;48.654;9.250;2023-08-20T11:06:17;10.00;;;9.60;;
2201;SDS011;1107;48.654;9.250;2023-08-20T11:08:46;10.23;;;9.53;;
2201;SDS011;1107;48.654;9.250;2023-08-20T11:11:13;11.43;;;9.47;;
2201;SDS011;1107;48.654;9.250;2023-08-20T11:13:41;8.87;;;8.27;;
2201;SDS011;1107;48.654;9.250;2023-08-20T11:16:08;9.80;;;9.20;;
2201;SDS011;1107;48.654;9.250;2023-08-20T11:18:36;9.57;;;9.10;;
2201;SDS011;1107;48.654;9.250;2023-08-20T11:21:03;8.93;;;8.43;;
2201;SDS011;1107;48.654;9.250;2023-08-20T11:23:30;10.80;;;10.00;;
2201;SDS011;1107;48.654;9.250;2023-08-20T11:25:59;9.67;;;8.87;;
2201;SDS011;1107;48.654;9.250;2023-08-20T11:28:27;10.13;;;9.23;;
2201;SDS011;1107;48.654;9.250;2023-08-20T11:30:54;9.77;;;8.97;;
2201;SDS011;1107;48.654;9.250;2023-08-20T11:33:22;10.07;;;9.37;;
2201;SDS011;1107;48.654;9.250;2023-08-20T11:35:51;10.53;;;9.60;;
2201;SDS011;1107;48.654;9.250;2023-08-20T11:38:20;10.97;;;10.13;;
2201;SDS011;1107;48.654;9.250;2023-08-20T11:40:49;9.90;;;9.30;;
2201;SDS011;1107;48.654;9.250;2023-08-20T11:43:18;9.80;;;9.20;;
2201;SDS011;1107;48.654;9.250;2023-08-20T11:45:46;14.27;;;9.13;;
2201;SDS011;1107;48.654;9.250;2023-08-20T11:48:13;9.77;;;9.17;;
2201;SDS011;1107;48.654;9.250;2023-08-20T11:50:41;9.10;;;8.70;;
2201;SDS011;1107;48.654;9.250;2023-08-20T11:53:08;9.97;;;9.37;;
2201;SDS011;1107;48.654;9.250;2023-08-20T11:55:37;9.10;;;8.70;;
2201;SDS011;1107;48.654;9.250;2023-08-20T11:58:09;9.77;;;9.20;;
2201;SDS011;1107;48.654;9.250;2023-08-20T12:00:39;9.63;;;9.03;;
2201;SDS011;1107;48.654;9.250;2023-08-20T12:03:06;9.63;;;9.00;;
2201;SDS011;1107;48.654;9.250;2023-08-20T12:05:35;9.83;;;9.27;;
2201;SDS011;1107;48.654;9.250;2023-08-20T12:08:02;9.90;;;9.50;;
2201;SDS011;1107;48.654;9.250;2023-08-20T12:10:30;9.90;;;9.00;;
2201;SDS011;1107;48.654;9.250;2023-08-20T12:12:58;9.13;;;8.50;;
2201;SDS011;1107;48.654;9.250;2023-08-20T12:15:25;10.93;;;9.03;;
2201;SDS011;1107;48.654;9.250;2023-08-20T12:18:01;10.50;;;9.80;;
2201;SDS011;1107;48.654;9.250;2023-08-20T12:20:30;9.87;;;9.00;;
2201;SDS011;1107;48.654;9.250;2023-08-20T12:22:58;9.37;;;8.50;;
2201;SDS011;1107;48.654;9.250;2023-08-20T12:25:26;9.30;;;8.43;;
2201;SDS011;1107;48.654;9.250;2023-08-20T12:27:56;10.23;;;9.30;;
2201;SDS011;1107;48.654;9.250;2023-08-20T12:30:23;9.10;;;8.70;;
2201;SDS011;1107;48.654;9.250;2023-08-20T12:32:50;8.93;;;8.43;;
2201;SDS011;1107;48.654;9.250;2023-08-20T12:35:19;9.70;;;9.13;;
2201;SDS011;1107;48.654;9.250;2023-08-20T12:37:46;9.53;;;8.93;;
2201;SDS011;1107;48.654;9.250;2023-08-20T12:40:13;8.80;;;8.30;;
2201;SDS011;1107;48.654;9.250;2023-08-20T12:42:40;9.43;;;8.53;;
2201;SDS011;1107;48.654;9.250;2023-08-20T12:45:08;7.53;;;7.13;;
2201;SDS011;1107;48.654;9.250;2023-08-20T12:47:35;7.50;;;7.20;;
2201;SDS011;1107;48.654;9.250;2023-08-20T12:50:03;10.50;;;9.00;;
2201;SDS011;1107;48.654;9.250;2023-08-20T12:52:32;8.70;;;8.20;;
2201;SDS011;1107;48.654;9.250;2023-08-20T12:55:00;14.33;;;9.40;;
2201;SDS011;1107;48.654;9.250;2023-08-20T12:57:28;10.43;;;8.97;;
2201;SDS011;1107;48.654;9.250;2023-08-20T12:59:55;9.40;;;8.90;;
2201;SDS011;1107;48.654;9.250;2023-08-20T13:02:22;9.60;;;9.10;;
2201;SDS011;1107;48.654;9.250;2023-08-20T13:04:50;9.67;;;8.93;;
2201;SDS011;1107;48.654;9.250;2023-08-20T13:07:17;9.70;;;8.90;;
2201;SDS011;1107;48.654;9.250;2023-08-20T13:09:46;10.10;;;8.80;;
2201;SDS011;1107;48.654;9.250;2023-08-20T13:12:14;9.60;;;8.80;;
2201;SDS011;1107;48.654;9.250;2023-08-20T13:14:45;8.83;;;8.43;;
2201;SDS011;1107;48.654;9.250;2023-08-20T13:17:12;14.80;;;9.30;;
2201;SDS011;1107;48.654;9.250;2023-08-20T13:19:39;10.77;;;9.70;;
2201;SDS011;1107;48.654;9.250;2023-08-20T13:22:06;9.80;;;9.10;;
2201;SDS011;1107;48.654;9.250;2023-08-20T13:24:33;9.67;;;8.77;;
2201;SDS011;1107;48.654;9.250;2023-08-20T13:27:02;9.20;;;8.80;;
2201;SDS011;1107;48.654;9.250;2023-08-20T13:29:29;9.17;;;8.87;;
2201;SDS011;1107;48.654;9.250;2023-08-20T13:31:56;8.73;;;8.33;;
2201;SDS011;1107;48.654;9.250;2023-08-20T13:34:23;8.30;;;7.90;;
2201;SDS011;1107;48.654;9.250;2023-08-20T13:36:50;9.97;;;9.17;;
2201;SDS011;1107;48.654;9.250;2023-08-20T13:39:17;8.30;;;8.00;;
2201;SDS011;1107;48.654;9.250;2023-08-20T13:41:45;10.13;;;9.40;;
2201;SDS011;1107;48.654;9.250;2023-08-20T13:44:16;10.63;;;9.87;;
2201;SDS011;1107;48.654;9.250;2023-08-20T13:46:43;10.00;;;9.53;;
2201;SDS011;1107;48.654;9.250;2023-08-20T13:49:10;9.73;;;9.10;;
2201;SDS011;1107;48.654;9.250;2023-08-20T13:51:37;9.70;;;9.20;;
2201;SDS011;1107;48.654;9.250;2023-08-20T13:54:04;9.83;;;9.43;;
2201;SDS011;1107;48.654;9.250;2023-08-20T13:56:31;9.20;;;8.80;;
2201;SDS011;1107;48.654;9.250;2023-08-20T13:58:58;8.90;;;8.17;;
2201;SDS011;1107;48.654;9.250;2023-08-20T14:01:27;9.33;;;8.67;;
2201;SDS011;1107;48.654;9.250;2023-08-20T14:03:54;10.93;;;10.17;;
2201;SDS011;1107;48.654;9.250;2023-08-20T14:06:21;9.43;;;8.73;;
2201;SDS011;1107;48.654;9.250;2023-08-20T14:08:47;9.97;;;9.07;;
2201;SDS011;1107;48.654;9.250;2023-08-20T14:11:15;10.20;;;9.50;;
2201;SDS011;1107;48.654;9.250;2023-08-20T14:13:41;9.70;;;9.07;;
2201;SDS011;1107;48.654;9.250;2023-08-20T14:16:09;9.57;;;9.07;;
2201;SDS011;1107;48.654;9.250;2023-08-20T14:18:37;9.50;;;9.00;;
2201;SDS011;1107;48.654;9.250;2023-08-20T14:21:04;9.13;;;8.70;;
2201;SDS011;1107;48.654;9.250;2023-08-20T14:23:31;9.50;;;8.87;;
2201;SDS011;1107;48.654;9.250;2023-08-20T14:26:00;9.00;;;8.43;;
2201;SDS011;1107;48.654;9.250;2023-08-20T14:28:27;12.50;;;9.83;;
2201;SDS011;1107;48.654;9.250;2023-08-20T14:30:54;9.33;;;8.73;;
2201;SDS011;1107;48.654;9.250;2023-08-20T14:33:21;9.03;;;8.40;;
2201;SDS011;1107;48.654;9.250;2023-08-20T14:35:49;8.60;;;8.30;;
2201;SDS011;1107;48.654;9.250;2023-08-20T14:38:16;9.60;;;8.73;;
2201;SDS011;1107;48.654;9.250;2023-08-20T14:40:43;9.10;;;8.70;;
2201;SDS011;1107;48.654;9.250;2023-08-20T14:43:10;9.03;;;8.17;;
2201;SDS011;1107;48.654;9.250;2023-08-20T14:45:37;9.73;;;9.07;;
2201;SDS011;1107;48.654;9.250;2023-08-20T14:48:04;8.63;;;8.23;;
2201;SDS011;1107;48.654;9.250;2023-08-20T14:50:32;8.30;;;7.90;;
2201;SDS011;1107;48.654;9.250;2023-08-20T14:53:02;10.07;;;8.97;;
2201;SDS011;1107;48.654;9.250;2023-08-20T14:55:29;9.10;;;8.60;;
2201;SDS011;1107;48.654;9.250;2023-08-20T14:57:56;13.17;;;9.80;;
2201;SDS011;1107;48.654;9.250;2023-08-20T15:00:23;9.17;;;8.50;;